createdAt,value
2018-12-03T00:00:01.773Z,16.40
2018-12-03T00:02:28.865Z,16.40
2018-12-03T00:04:55.942Z,16.40
2018-12-03T00:07:23.054Z,16.40
2018-12-03T00:09:50.175Z,16.40
2018-12-03T00:12:17.273Z,16.40
2018-12-03T00:14:44.401Z,16.40
2018-12-03T00:17:11.490Z,16.40
2018-12-03T00:19:38.597Z,16.50
2018-12-03T00:22:05.697Z,16.50
2018-12-03T00:24:32.776Z,16.50
2018-12-03T00:26:59.890Z,16.50
2018-12-03T00:29:27.041Z,16.50
2018-12-03T00:31:54.137Z,16.50
2018-12-03T00:34:21.237Z,16.60
2018-12-03T00:36:48.315Z,16.60
2018-12-03T00:39:15.422Z,16.60
2018-12-03T00:41:42.482Z,16.60
2018-12-03T00:44:09.577Z,16.60
2018-12-03T00:46:36.670Z,16.60
2018-12-03T00:49:03.774Z,16.60
2018-12-03T00:51:30.850Z,16.70
2018-12-03T00:53:57.937Z,16.70
2018-12-03T00:56:25.000Z,16.70
2018-12-03T00:58:52.110Z,16.70
2018-12-03T01:01:19.181Z,16.70
2018-12-03T01:03:46.273Z,16.70
2018-12-03T01:06:13.328Z,16.70
2018-12-03T01:08:40.429Z,16.70
2018-12-03T01:11:07.542Z,16.70
2018-12-03T01:13:34.656Z,16.80
2018-12-03T01:16:01.763Z,16.70
2018-12-03T01:18:28.866Z,16.80
2018-12-03T01:20:55.996Z,16.80
2018-12-03T01:23:23.073Z,16.80
2018-12-03T01:25:50.173Z,16.80
2018-12-03T01:28:17.269Z,16.70
2018-12-03T01:30:44.402Z,16.70
2018-12-03T01:33:11.474Z,16.70
2018-12-03T01:35:38.574Z,16.70
2018-12-03T01:38:05.898Z,16.70
2018-12-03T01:40:33.098Z,16.70
2018-12-03T01:43:00.194Z,16.70
2018-12-03T01:45:27.327Z,16.70
2018-12-03T01:47:54.434Z,16.70
2018-12-03T01:50:21.534Z,16.60
2018-12-03T01:52:48.651Z,16.70
2018-12-03T01:55:15.745Z,16.70
2018-12-03T01:57:42.845Z,16.60
2018-12-03T02:00:14.944Z,16.70
2018-12-03T02:02:42.271Z,16.70
2018-12-03T02:05:09.447Z,16.70
2018-12-03T02:07:36.577Z,16.60
2018-12-03T02:10:10.014Z,16.60
2018-12-03T02:12:37.146Z,16.60
2018-12-03T02:15:06.315Z,16.70
2018-12-03T02:17:33.446Z,16.70
2018-12-03T02:20:00.553Z,16.60
2018-12-03T02:22:27.642Z,16.70
2018-12-03T02:24:54.885Z,16.70
2018-12-03T02:27:21.989Z,16.70
2018-12-03T02:29:49.143Z,16.70
2018-12-03T02:32:16.229Z,16.70
2018-12-03T02:34:43.330Z,16.70
2018-12-03T02:37:10.424Z,16.70
2018-12-03T02:39:37.490Z,16.70
2018-12-03T02:42:04.666Z,16.70
2018-12-03T02:44:31.738Z,16.70
2018-12-03T02:46:58.862Z,16.70
2018-12-03T02:49:25.962Z,16.70
2018-12-03T02:51:53.043Z,16.70
2018-12-03T02:54:20.145Z,16.80
2018-12-03T02:56:47.241Z,16.70
2018-12-03T02:59:14.333Z,16.70
2018-12-03T03:01:41.451Z,16.70
2018-12-03T03:04:08.530Z,16.70
2018-12-03T03:06:35.639Z,16.70
2018-12-03T03:09:03.775Z,16.70
2018-12-03T03:11:30.744Z,16.70
2018-12-03T03:13:57.849Z,16.70
2018-12-03T03:16:24.977Z,16.70
2018-12-03T03:18:52.058Z,16.60
2018-12-03T03:21:19.143Z,16.60
2018-12-03T03:23:46.250Z,16.60
2018-12-03T03:26:13.325Z,16.60
2018-12-03T03:28:40.431Z,16.60
2018-12-03T03:31:07.506Z,16.60
2018-12-03T03:33:34.594Z,16.60
2018-12-03T03:36:01.707Z,16.60
2018-12-03T03:38:28.817Z,16.60
2018-12-03T03:40:55.913Z,16.60
2018-12-03T03:43:22.994Z,16.60
2018-12-03T03:45:50.054Z,16.50
2018-12-03T03:48:17.144Z,16.60
2018-12-03T03:50:44.221Z,16.50
2018-12-03T03:53:11.310Z,16.50
2018-12-03T03:55:38.401Z,16.50
2018-12-03T03:58:05.646Z,16.50
2018-12-03T04:00:32.753Z,16.50
2018-12-03T04:02:59.855Z,16.50
2018-12-03T04:05:26.946Z,16.50
2018-12-03T04:07:54.018Z,16.50
2018-12-03T04:10:21.116Z,16.50
2018-12-03T04:12:48.184Z,16.50
2018-12-03T04:15:15.583Z,16.50
2018-12-03T04:17:42.746Z,16.50
2018-12-03T04:20:15.714Z,16.50
2018-12-03T04:22:44.105Z,16.50
2018-12-03T04:25:11.464Z,16.50
2018-12-03T04:27:38.543Z,16.50
2018-12-03T04:30:09.169Z,16.50
2018-12-03T04:32:36.267Z,16.50
2018-12-03T04:35:03.371Z,16.50
2018-12-03T04:37:30.457Z,16.50
2018-12-03T04:39:57.527Z,16.50
2018-12-03T04:42:24.610Z,16.50
2018-12-03T04:44:51.706Z,16.50
2018-12-03T04:47:18.781Z,16.50
2018-12-03T04:49:45.853Z,16.50
2018-12-03T04:52:12.926Z,16.50
2018-12-03T04:54:40.010Z,16.50
2018-12-03T04:57:07.101Z,16.50
2018-12-03T04:59:34.206Z,16.50
2018-12-03T05:02:01.330Z,16.50
2018-12-03T05:04:28.438Z,16.50
2018-12-03T05:06:55.537Z,16.50
2018-12-03T05:09:22.633Z,16.50
2018-12-03T05:11:49.725Z,16.50
2018-12-03T05:14:16.818Z,16.50
2018-12-03T05:16:43.910Z,16.60
2018-12-03T05:19:11.007Z,16.60
2018-12-03T05:21:38.082Z,16.60
2018-12-03T05:24:05.169Z,16.60
2018-12-03T05:26:32.272Z,16.60
2018-12-03T05:28:59.361Z,16.60
2018-12-03T05:31:26.463Z,16.60
2018-12-03T05:33:53.565Z,16.60
2018-12-03T05:36:20.690Z,16.60
2018-12-03T05:38:47.781Z,16.60
2018-12-03T05:41:14.891Z,16.60
2018-12-03T05:43:42.037Z,16.60
2018-12-03T05:46:09.142Z,16.60
2018-12-03T05:48:36.219Z,16.60
2018-12-03T05:51:03.379Z,16.60
2018-12-03T05:53:30.461Z,16.60
2018-12-03T05:55:57.557Z,16.60
2018-12-03T05:58:24.638Z,16.60
2018-12-03T06:00:51.727Z,16.60
2018-12-03T06:03:18.794Z,16.60
2018-12-03T06:05:45.878Z,16.60
2018-12-03T06:08:12.961Z,16.60
2018-12-03T06:10:40.043Z,16.60
2018-12-03T06:13:07.096Z,16.60
2018-12-03T06:15:34.174Z,16.60
2018-12-03T06:18:01.245Z,16.60
2018-12-03T06:20:28.331Z,16.60
2018-12-03T06:22:55.425Z,16.60
2018-12-03T06:25:25.918Z,16.60
2018-12-03T06:27:53.000Z,16.60
2018-12-03T06:30:21.153Z,16.60
2018-12-03T06:32:48.273Z,16.60
2018-12-03T06:35:15.926Z,16.60
2018-12-03T06:37:43.064Z,16.60
2018-12-03T06:40:14.065Z,16.60
2018-12-03T06:42:41.134Z,16.60
2018-12-03T06:45:09.937Z,16.60
2018-12-03T06:47:37.587Z,16.50
2018-12-03T06:50:06.669Z,16.60
2018-12-03T06:52:33.765Z,16.50
2018-12-03T06:55:00.862Z,16.50
2018-12-03T06:57:27.941Z,16.50
2018-12-03T06:59:55.034Z,16.50
2018-12-03T07:02:22.138Z,16.50
2018-12-03T07:04:49.208Z,16.60
2018-12-03T07:07:16.306Z,16.50
2018-12-03T07:09:43.390Z,16.50
2018-12-03T07:12:10.478Z,16.50
2018-12-03T07:14:37.563Z,16.50
2018-12-03T07:17:05.133Z,16.50
2018-12-03T07:19:32.226Z,16.50
2018-12-03T07:21:59.310Z,16.50
2018-12-03T07:24:26.408Z,16.50
2018-12-03T07:26:53.513Z,16.40
2018-12-03T07:29:20.588Z,16.40
2018-12-03T07:31:47.670Z,16.40
2018-12-03T07:34:14.766Z,16.40
2018-12-03T07:36:41.942Z,16.40
2018-12-03T07:39:09.054Z,16.40
2018-12-03T07:41:36.174Z,16.40
2018-12-03T07:44:03.400Z,16.40
2018-12-03T07:46:30.494Z,16.40
2018-12-03T07:48:57.586Z,16.40
2018-12-03T07:51:24.666Z,16.40
2018-12-03T07:53:51.760Z,16.50
2018-12-03T07:56:18.870Z,16.50
2018-12-03T07:58:45.961Z,16.50
2018-12-03T08:01:13.045Z,16.60
2018-12-03T08:03:40.142Z,16.60
2018-12-03T08:06:07.258Z,16.60
2018-12-03T08:08:34.354Z,16.70
2018-12-03T08:11:01.502Z,16.70
2018-12-03T08:13:28.591Z,16.70
2018-12-03T08:15:55.693Z,16.70
2018-12-03T08:18:23.534Z,16.70
2018-12-03T08:20:51.925Z,16.70
2018-12-03T08:23:36.963Z,16.70
2018-12-03T08:26:06.061Z,16.70
2018-12-03T08:28:33.158Z,16.70
2018-12-03T08:31:00.253Z,16.60
2018-12-03T08:33:27.340Z,16.60
2018-12-03T08:35:54.425Z,16.60
2018-12-03T08:38:21.602Z,16.60
2018-12-03T08:40:48.705Z,16.60
2018-12-03T08:43:15.778Z,16.60
2018-12-03T08:45:42.978Z,16.60
2018-12-03T08:48:10.061Z,16.60
2018-12-03T08:50:40.621Z,16.60
2018-12-03T08:53:08.893Z,16.50
2018-12-03T08:55:36.065Z,16.50
2018-12-03T08:58:03.168Z,16.50
2018-12-03T09:00:30.273Z,16.50
2018-12-03T09:02:59.696Z,16.50
2018-12-03T09:05:28.480Z,16.50
2018-12-03T09:07:55.566Z,16.50
2018-12-03T09:10:22.763Z,16.50
2018-12-03T09:12:49.874Z,16.50
2018-12-03T09:15:16.979Z,16.50
2018-12-03T09:17:44.060Z,16.50
2018-12-03T09:20:11.137Z,16.50
2018-12-03T09:22:38.233Z,16.50
2018-12-03T09:25:13.009Z,16.50
2018-12-03T09:27:40.110Z,16.50
2018-12-03T09:30:07.187Z,16.50
2018-12-03T09:39:16.998Z,16.60
2018-12-03T09:41:44.831Z,16.60
2018-12-03T09:44:11.929Z,16.60
2018-12-03T09:46:39.021Z,16.60
2018-12-03T09:49:06.553Z,16.60
2018-12-03T09:51:34.585Z,16.60
2018-12-03T09:54:03.468Z,16.70
2018-12-03T09:56:36.955Z,16.60
2018-12-03T09:59:08.025Z,16.60
2018-12-03T10:01:35.117Z,16.60
2018-12-03T10:04:03.045Z,16.60
2018-12-03T10:06:30.116Z,16.60
2018-12-03T10:08:57.193Z,16.70
2018-12-03T10:11:24.278Z,16.60
2018-12-03T10:13:51.349Z,16.70
2018-12-03T10:16:18.449Z,16.60
2018-12-03T10:18:47.321Z,16.60
2018-12-03T10:21:14.417Z,16.60
2018-12-03T10:23:41.497Z,16.60
2018-12-03T10:26:09.945Z,16.60
2018-12-03T10:28:37.043Z,16.60
2018-12-03T10:31:04.929Z,16.60
2018-12-03T10:33:32.625Z,16.60
2018-12-03T10:36:02.721Z,16.60
2018-12-03T10:38:32.000Z,16.60
2018-12-03T10:41:03.033Z,16.60
2018-12-03T10:43:30.137Z,16.60
2018-12-03T10:45:57.270Z,16.60
2018-12-03T10:48:24.355Z,16.60
2018-12-03T10:50:51.461Z,16.60
2018-12-03T10:53:25.305Z,16.60
2018-12-03T10:55:52.397Z,16.60
2018-12-03T10:58:19.491Z,16.60
2018-12-03T11:00:52.382Z,16.60
2018-12-03T11:03:25.302Z,16.60
2018-12-03T11:05:58.200Z,16.60
2018-12-03T11:08:25.331Z,16.60
2018-12-03T11:10:53.401Z,16.60
2018-12-03T11:13:20.500Z,16.60
2018-12-03T11:15:47.581Z,16.60
2018-12-03T11:18:14.670Z,16.60
2018-12-03T11:20:41.794Z,16.60
2018-12-03T11:23:09.223Z,16.60
2018-12-03T11:25:38.509Z,16.60
2018-12-03T11:28:07.902Z,16.60
2018-12-03T11:30:35.916Z,16.60
2018-12-03T11:33:02.999Z,16.60
2018-12-03T11:35:30.869Z,16.60
2018-12-03T11:38:07.960Z,16.60
2018-12-03T11:40:41.461Z,16.60
2018-12-03T11:43:08.585Z,16.60
2018-12-03T11:45:35.657Z,16.60
2018-12-03T11:48:02.834Z,16.60
2018-12-03T11:50:29.937Z,16.60
2018-12-03T11:52:57.037Z,16.60
2018-12-03T11:55:24.142Z,16.60
2018-12-03T11:57:51.204Z,16.60
2018-12-03T12:00:18.337Z,16.60
2018-12-03T12:02:45.454Z,16.60
2018-12-03T12:05:12.583Z,16.70
2018-12-03T12:07:42.302Z,16.70
2018-12-03T12:10:08.077Z,16.70
2018-12-03T12:12:35.176Z,16.70
2018-12-03T12:15:02.300Z,16.70
2018-12-03T12:17:29.396Z,16.70
2018-12-03T12:19:56.541Z,16.70
2018-12-03T12:22:23.721Z,16.70
2018-12-03T12:24:50.801Z,16.70
2018-12-03T12:27:17.908Z,16.70
2018-12-03T12:29:45.017Z,16.70
2018-12-03T12:32:12.120Z,16.60
2018-12-03T12:34:39.213Z,16.60
2018-12-03T12:37:06.302Z,16.60
2018-12-03T12:39:33.415Z,16.60
2018-12-03T12:42:00.529Z,16.60
2018-12-03T12:44:27.625Z,16.70
2018-12-03T12:46:54.735Z,16.60
2018-12-03T12:49:21.860Z,16.70
2018-12-03T12:51:51.564Z,16.70
2018-12-03T12:54:16.117Z,16.60
2018-12-03T12:56:43.196Z,16.60
2018-12-03T12:59:10.309Z,16.70
2018-12-03T13:01:37.401Z,16.70
2018-12-03T13:04:05.583Z,16.70
2018-12-03T13:06:32.689Z,16.70
2018-12-03T13:08:59.754Z,16.70
2018-12-03T13:11:26.854Z,16.60
2018-12-03T13:13:53.926Z,16.70
2018-12-03T13:16:21.035Z,16.60
2018-12-03T13:18:48.101Z,16.60
2018-12-03T13:21:15.169Z,16.60
2018-12-03T13:23:42.252Z,16.60
2018-12-03T13:26:09.544Z,16.60
2018-12-03T13:28:36.637Z,16.60
2018-12-03T13:31:03.875Z,16.60
2018-12-03T13:33:30.981Z,16.60
2018-12-03T13:35:58.085Z,16.60
2018-12-03T13:38:25.187Z,16.70
2018-12-03T13:40:52.302Z,16.60
2018-12-03T13:43:19.377Z,16.60
2018-12-03T13:45:46.480Z,16.60
2018-12-03T13:48:13.568Z,16.60
2018-12-03T13:50:40.665Z,16.60
2018-12-03T13:53:07.762Z,16.60
2018-12-03T13:55:34.864Z,16.60
2018-12-03T13:58:01.962Z,16.60
2018-12-03T14:00:29.062Z,16.60
2018-12-03T14:02:59.464Z,16.60
2018-12-03T14:05:27.544Z,16.60
2018-12-03T14:08:02.232Z,16.60
2018-12-03T14:10:50.849Z,16.60
2018-12-03T14:13:32.980Z,16.60
2018-12-03T14:16:12.826Z,16.60
2018-12-03T14:18:45.509Z,16.70
2018-12-03T14:21:52.067Z,16.60
2018-12-03T14:24:19.562Z,16.60
2018-12-03T14:26:46.678Z,16.60
2018-12-03T14:29:13.787Z,16.60
2018-12-03T14:31:40.877Z,16.60
2018-12-03T14:34:21.036Z,16.60
2018-12-03T14:36:48.254Z,16.70
2018-12-03T14:39:15.353Z,16.60
2018-12-03T14:41:42.465Z,16.60
2018-12-03T14:44:09.577Z,16.60
2018-12-03T14:46:36.677Z,16.60
2018-12-03T14:49:03.773Z,16.60
2018-12-03T14:51:30.881Z,16.70
2018-12-03T14:53:58.021Z,16.60
2018-12-03T14:56:25.108Z,16.60
2018-12-03T14:58:52.173Z,16.60
2018-12-03T15:01:19.292Z,16.60
2018-12-03T15:03:46.357Z,16.60
2018-12-03T15:06:13.443Z,16.60
2018-12-03T15:08:40.541Z,16.60
2018-12-03T15:11:07.625Z,16.70
2018-12-03T15:13:34.709Z,16.60
2018-12-03T15:16:01.801Z,16.60
2018-12-03T15:18:28.901Z,16.70
2018-12-03T15:20:56.608Z,16.60
2018-12-03T15:23:23.697Z,16.60
2018-12-03T15:25:50.793Z,16.70
2018-12-03T15:28:17.922Z,16.70
2018-12-03T15:30:45.037Z,16.70
2018-12-03T15:33:12.097Z,16.70
2018-12-03T15:35:39.238Z,16.60
2018-12-03T15:38:06.322Z,16.70
2018-12-03T15:40:33.408Z,16.60
2018-12-03T15:43:00.484Z,16.70
2018-12-03T15:45:27.585Z,16.60
2018-12-03T15:47:54.677Z,16.60
2018-12-03T15:50:21.788Z,16.60
2018-12-03T15:52:48.889Z,16.70
2018-12-03T15:55:15.988Z,16.60
2018-12-03T15:57:43.049Z,16.60
2018-12-03T16:00:11.312Z,16.60
2018-12-03T16:02:38.384Z,16.70
2018-12-03T16:05:08.440Z,16.60
2018-12-03T16:07:35.556Z,16.70
2018-12-03T16:10:03.782Z,16.70
2018-12-03T16:12:30.878Z,16.70
2018-12-03T16:14:57.955Z,16.70
2018-12-03T16:17:25.055Z,16.70
2018-12-03T16:19:52.128Z,16.70
2018-12-03T16:22:19.214Z,16.70
2018-12-03T16:24:46.293Z,16.60
2018-12-03T16:27:13.445Z,16.70
2018-12-03T16:29:40.536Z,16.70
2018-12-03T16:32:07.629Z,16.70
2018-12-03T16:34:34.723Z,16.70
2018-12-03T16:37:01.841Z,16.70
2018-12-03T16:39:28.917Z,16.60
2018-12-03T16:41:56.029Z,16.70
2018-12-03T16:44:23.141Z,16.70
2018-12-03T16:46:50.231Z,16.70
2018-12-03T16:49:17.386Z,16.70
2018-12-03T16:51:44.487Z,16.70
2018-12-03T16:54:11.576Z,16.70
2018-12-03T16:56:38.661Z,16.70
2018-12-03T16:59:05.815Z,16.70
2018-12-03T17:01:32.917Z,16.70
2018-12-03T17:03:59.990Z,16.70
2018-12-03T17:06:27.081Z,16.70
2018-12-03T17:08:54.206Z,16.70
2018-12-03T17:11:21.316Z,16.70
2018-12-03T17:13:48.396Z,16.70
2018-12-03T17:16:15.485Z,16.70
2018-12-03T17:18:42.564Z,16.70
2018-12-03T17:21:13.245Z,16.70
2018-12-03T17:23:50.905Z,16.60
2018-12-03T17:26:18.008Z,16.70
2018-12-03T17:28:45.088Z,16.70
2018-12-03T17:31:12.192Z,16.70
2018-12-03T17:33:39.263Z,16.70
2018-12-03T17:36:06.348Z,16.70
2018-12-03T17:38:33.420Z,16.70
2018-12-03T17:41:00.484Z,16.60
2018-12-03T17:43:27.589Z,16.70
2018-12-03T17:45:54.674Z,16.70
2018-12-03T17:48:21.749Z,16.70
2018-12-03T17:50:48.815Z,16.70
2018-12-03T17:53:15.918Z,16.70
2018-12-03T17:55:43.017Z,16.70
2018-12-03T17:58:10.136Z,16.70
2018-12-03T18:00:37.221Z,16.70
2018-12-03T18:03:04.303Z,16.70
2018-12-03T18:05:31.379Z,16.70
2018-12-03T18:07:58.459Z,16.70
2018-12-03T18:10:25.569Z,16.70
2018-12-03T18:12:52.647Z,16.70
2018-12-03T18:15:19.765Z,16.70
2018-12-03T18:17:46.893Z,16.70
2018-12-03T18:20:13.964Z,16.60
2018-12-03T18:22:41.056Z,16.70
2018-12-03T18:25:08.158Z,16.70
2018-12-03T18:27:35.268Z,16.60
2018-12-03T18:30:02.836Z,16.70
2018-12-03T18:32:29.936Z,16.70
2018-12-03T18:34:57.056Z,16.70
2018-12-03T18:37:24.169Z,16.70
2018-12-03T18:39:51.250Z,16.70
2018-12-03T18:42:18.323Z,16.70
2018-12-03T18:44:45.425Z,16.60
2018-12-03T18:47:12.535Z,16.60
2018-12-03T18:49:42.819Z,16.60
2018-12-03T18:52:10.893Z,16.60
2018-12-03T18:54:37.985Z,16.60
2018-12-03T18:57:05.064Z,16.60
2018-12-03T18:59:33.122Z,16.60
2018-12-03T19:02:00.231Z,16.60
2018-12-03T19:04:27.357Z,16.60
2018-12-03T19:06:54.471Z,16.60
2018-12-03T19:09:21.556Z,16.60
2018-12-03T19:11:48.649Z,16.60
2018-12-03T19:14:15.753Z,16.60
2018-12-03T19:16:42.833Z,16.60
2018-12-03T19:19:09.904Z,16.60
2018-12-03T19:21:37.017Z,16.60
2018-12-03T19:24:04.099Z,16.60
2018-12-03T19:26:31.208Z,16.60
2018-12-03T19:28:58.280Z,16.60
2018-12-03T19:31:25.390Z,16.60
2018-12-03T19:33:52.486Z,16.50
2018-12-03T19:36:19.564Z,16.60
2018-12-03T19:38:46.681Z,16.60
2018-12-03T19:41:13.787Z,16.60
2018-12-03T19:43:40.912Z,16.60
2018-12-03T19:46:08.026Z,16.50
2018-12-03T19:48:35.132Z,16.50
2018-12-03T19:51:02.240Z,16.50
2018-12-03T19:53:29.368Z,16.50
2018-12-03T19:55:56.493Z,16.60
2018-12-03T19:58:26.876Z,16.60
2018-12-03T20:00:53.964Z,16.60
2018-12-03T20:03:21.048Z,16.70
2018-12-03T20:05:48.167Z,16.80
2018-12-03T20:08:15.271Z,16.80
2018-12-03T20:10:42.834Z,16.90
2018-12-03T20:13:09.517Z,17.00
2018-12-03T20:15:36.619Z,17.00
2018-12-03T20:18:03.724Z,17.00
2018-12-03T20:20:41.384Z,17.10
2018-12-03T20:23:13.516Z,17.00
2018-12-03T20:25:46.321Z,17.00
2018-12-03T20:28:17.381Z,17.00
2018-12-03T20:31:11.285Z,17.00
2018-12-03T20:35:52.229Z,16.90
2018-12-03T20:38:25.592Z,17.00
2018-12-03T20:41:00.392Z,16.90
2018-12-03T20:43:29.327Z,16.80
2018-12-03T20:46:37.948Z,16.80
2018-12-03T20:50:21.244Z,16.80
2018-12-03T20:52:49.233Z,16.80
2018-12-03T20:55:20.256Z,16.70
2018-12-03T20:57:47.357Z,16.70
2018-12-03T21:00:14.589Z,16.70
2018-12-03T21:02:41.676Z,16.70
2018-12-03T21:05:08.818Z,16.70
2018-12-03T21:07:35.964Z,16.70
2018-12-03T21:10:03.112Z,16.70
2018-12-03T21:12:30.213Z,16.60
2018-12-03T21:14:57.316Z,16.60
2018-12-03T21:17:24.386Z,16.60
2018-12-03T21:19:55.609Z,16.60
2018-12-03T21:22:22.746Z,16.60
2018-12-03T21:24:49.838Z,16.60
2018-12-03T21:27:16.945Z,16.60
2018-12-03T21:29:44.082Z,16.60
2018-12-03T21:32:11.128Z,16.60
2018-12-03T21:34:38.202Z,16.60
2018-12-03T21:37:05.287Z,16.60
2018-12-03T21:39:32.396Z,16.60
2018-12-03T21:41:59.480Z,16.70
2018-12-03T21:44:26.583Z,16.70
2018-12-03T21:46:53.666Z,16.80
2018-12-03T21:49:20.773Z,16.80
2018-12-03T21:51:47.840Z,16.80
2018-12-03T21:54:14.949Z,16.90
2018-12-03T21:56:42.053Z,16.80
2018-12-03T21:59:09.148Z,16.90
2018-12-03T22:01:36.228Z,16.90
2018-12-03T22:04:03.312Z,16.80
2018-12-03T22:06:30.425Z,16.80
2018-12-03T22:08:57.519Z,16.80
2018-12-03T22:11:24.600Z,16.80
2018-12-03T22:13:51.688Z,16.80
2018-12-03T22:16:18.773Z,16.80
2018-12-03T22:18:45.862Z,16.80
2018-12-03T22:21:12.949Z,16.80
2018-12-03T22:23:40.063Z,16.70
2018-12-03T22:26:07.148Z,16.70
2018-12-03T22:28:34.245Z,16.70
2018-12-03T22:31:01.348Z,16.70
2018-12-03T22:33:28.432Z,16.70
2018-12-03T22:35:55.524Z,16.70
2018-12-03T22:38:22.621Z,16.70
2018-12-03T22:40:49.762Z,16.70
2018-12-03T22:43:16.865Z,16.70
2018-12-03T22:45:43.941Z,16.60
2018-12-03T22:48:11.039Z,16.70
2018-12-03T22:50:38.166Z,16.70
2018-12-03T22:53:05.276Z,16.70
2018-12-03T22:55:32.348Z,16.70
2018-12-03T22:57:59.441Z,16.70
2018-12-03T23:00:32.189Z,16.70
2018-12-03T23:02:59.260Z,16.60
2018-12-03T23:05:26.368Z,16.70
2018-12-03T23:07:53.436Z,16.70
2018-12-03T23:10:20.520Z,16.70
2018-12-03T23:12:47.628Z,16.70
2018-12-03T23:15:14.685Z,16.70
2018-12-03T23:17:41.769Z,16.70
2018-12-03T23:20:08.853Z,16.70
2018-12-03T23:22:35.948Z,16.70
2018-12-03T23:25:03.043Z,16.70
2018-12-03T23:27:30.123Z,16.70
2018-12-03T23:29:57.278Z,16.80
2018-12-03T23:32:24.333Z,16.80
2018-12-03T23:34:51.413Z,16.80
2018-12-03T23:37:18.512Z,16.80
2018-12-03T23:39:45.609Z,16.80
2018-12-03T23:42:12.713Z,16.80
2018-12-03T23:44:39.812Z,16.80
2018-12-03T23:47:06.929Z,16.80
2018-12-03T23:49:34.004Z,16.80
2018-12-03T23:52:01.125Z,16.80
2018-12-03T23:54:28.223Z,16.80
2018-12-03T23:56:55.320Z,16.80
2018-12-03T23:59:22.465Z,16.80
